createdAt,value
2022-10-26T00:01:34.534Z,100.00
2022-10-26T00:04:04.056Z,100.00
2022-10-26T00:06:32.087Z,100.00
2022-10-26T00:09:00.115Z,100.00
2022-10-26T00:11:28.167Z,100.00
2022-10-26T00:13:56.267Z,100.00
2022-10-26T00:16:26.390Z,100.00
2022-10-26T00:18:54.838Z,100.00
2022-10-26T00:21:24.253Z,100.00
2022-10-26T00:23:52.282Z,100.00
2022-10-26T00:26:20.355Z,100.00
2022-10-26T00:28:48.913Z,100.00
2022-10-26T00:31:17.612Z,100.00
2022-10-26T00:33:46.111Z,100.00
2022-10-26T00:36:16.942Z,100.00
2022-10-26T00:38:50.182Z,100.00
2022-10-26T00:41:19.889Z,100.00
2022-10-26T00:43:48.204Z,100.00
2022-10-26T00:46:21.010Z,100.00
2022-10-26T00:48:53.420Z,100.00
2022-10-26T00:51:26.967Z,100.00
2022-10-26T00:53:57.707Z,100.00
2022-10-26T00:56:26.062Z,100.00
2022-10-26T00:58:54.508Z,100.00
2022-10-26T01:01:22.566Z,100.00
2022-10-26T01:03:51.079Z,100.00
2022-10-26T01:06:20.307Z,100.00
2022-10-26T01:08:49.347Z,100.00
2022-10-26T01:11:19.464Z,100.00
2022-10-26T01:13:49.603Z,100.00
2022-10-26T01:16:42.044Z,100.00
2022-10-26T01:19:45.720Z,100.00
2022-10-26T01:22:18.679Z,100.00
2022-10-26T01:25:06.567Z,100.00
2022-10-26T01:27:37.941Z,100.00
2022-10-26T01:30:19.791Z,100.00
2022-10-26T01:32:56.492Z,100.00
2022-10-26T01:35:31.335Z,100.00
2022-10-26T01:38:06.629Z,100.00
2022-10-26T01:40:39.370Z,100.00
2022-10-26T01:43:10.974Z,100.00
2022-10-26T01:45:43.482Z,100.00
2022-10-26T01:48:15.236Z,100.00
2022-10-26T01:50:45.243Z,100.00
2022-10-26T01:53:13.833Z,100.00
2022-10-26T01:55:46.879Z,100.00
2022-10-26T01:58:43.451Z,100.00
2022-10-26T02:01:25.781Z,100.00
2022-10-26T02:04:05.273Z,100.00
2022-10-26T02:06:42.443Z,100.00
2022-10-26T02:09:21.672Z,100.00
2022-10-26T02:11:53.462Z,100.00
2022-10-26T02:14:26.040Z,100.00
2022-10-26T02:16:58.425Z,100.00
2022-10-26T02:19:35.051Z,100.00
2022-10-26T02:22:09.944Z,100.00
2022-10-26T02:24:38.664Z,100.00
2022-10-26T02:27:13.094Z,100.00
2022-10-26T02:29:42.975Z,100.00
2022-10-26T02:32:14.014Z,100.00
2022-10-26T02:34:47.133Z,100.00
2022-10-26T02:37:20.328Z,100.00
2022-10-26T02:39:50.892Z,100.00
2022-10-26T02:42:20.359Z,100.00
2022-10-26T02:44:52.645Z,100.00
2022-10-26T02:47:22.831Z,100.00
2022-10-26T02:49:51.309Z,100.00
2022-10-26T02:52:25.649Z,100.00
2022-10-26T02:54:59.106Z,100.00
2022-10-26T02:57:33.460Z,100.00
2022-10-26T03:00:02.700Z,100.00
2022-10-26T03:02:32.167Z,100.00
2022-10-26T03:05:10.887Z,100.00
2022-10-26T03:07:38.870Z,100.00
2022-10-26T03:10:08.193Z,100.00
2022-10-26T03:12:36.217Z,100.00
2022-10-26T03:15:04.352Z,100.00
2022-10-26T03:17:33.700Z,100.00
2022-10-26T03:20:01.640Z,100.00
2022-10-26T03:22:29.658Z,100.00
2022-10-26T03:24:57.663Z,100.00
2022-10-26T03:27:27.071Z,100.00
2022-10-26T03:29:55.095Z,100.00
2022-10-26T03:32:23.149Z,100.00
2022-10-26T03:34:52.506Z,100.00
2022-10-26T03:37:20.622Z,100.00
2022-10-26T03:39:48.539Z,100.00
2022-10-26T03:42:16.594Z,100.00
2022-10-26T03:44:44.509Z,100.00
2022-10-26T03:47:12.402Z,100.00
2022-10-26T03:49:40.407Z,100.00
2022-10-26T03:52:09.818Z,100.00
2022-10-26T03:54:37.787Z,100.00
2022-10-26T03:57:05.836Z,100.00
2022-10-26T03:59:33.758Z,100.00
2022-10-26T04:02:01.829Z,100.00
2022-10-26T04:04:29.994Z,100.00
2022-10-26T04:06:58.149Z,100.00
2022-10-26T04:09:27.546Z,100.00
2022-10-26T04:11:55.506Z,100.00
2022-10-26T04:14:23.510Z,100.00
2022-10-26T04:16:51.561Z,100.00
2022-10-26T04:19:19.499Z,100.00
2022-10-26T04:21:47.550Z,100.00
2022-10-26T04:24:16.307Z,100.00
2022-10-26T04:26:46.385Z,100.00
2022-10-26T04:29:14.500Z,100.00
2022-10-26T04:34:13.000Z,100.00
2022-10-26T04:36:41.119Z,100.00
2022-10-26T04:39:09.318Z,100.00
2022-10-26T04:41:37.335Z,100.00
2022-10-26T04:44:06.833Z,100.00
2022-10-26T04:46:34.913Z,100.00
2022-10-26T04:49:03.022Z,100.00
2022-10-26T04:51:30.996Z,100.00
2022-10-26T04:53:59.001Z,100.00
2022-10-26T04:56:27.050Z,100.00
2022-10-26T04:58:55.738Z,100.00
2022-10-26T05:01:25.246Z,100.00
2022-10-26T05:03:54.817Z,100.00
2022-10-26T05:06:22.968Z,100.00
2022-10-26T05:08:51.038Z,100.00
2022-10-26T05:11:18.977Z,100.00
2022-10-26T05:13:49.165Z,100.00
2022-10-26T05:16:17.513Z,100.00
2022-10-26T05:18:49.576Z,100.00
2022-10-26T05:21:19.800Z,100.00
2022-10-26T05:23:52.570Z,100.00
2022-10-26T05:26:20.719Z,100.00
2022-10-26T05:28:48.881Z,100.00
2022-10-26T05:31:16.950Z,100.00
2022-10-26T05:33:49.482Z,100.00
2022-10-26T05:36:17.876Z,100.00
2022-10-26T05:38:46.016Z,100.00
2022-10-26T05:41:14.590Z,100.00
2022-10-26T05:43:42.604Z,100.00
2022-10-26T05:46:10.613Z,100.00
2022-10-26T05:48:38.618Z,100.00
2022-10-26T05:51:08.277Z,100.00
2022-10-26T05:53:36.238Z,100.00
2022-10-26T05:56:07.291Z,100.00
2022-10-26T05:58:39.455Z,100.00
2022-10-26T06:01:20.012Z,100.00
2022-10-26T06:04:02.411Z,100.00
2022-10-26T06:06:39.615Z,100.00
2022-10-26T06:09:09.657Z,100.00
2022-10-26T06:11:38.207Z,100.00
2022-10-26T06:14:07.297Z,100.00
2022-10-26T06:16:43.356Z,100.00
2022-10-26T06:19:22.926Z,100.00
2022-10-26T06:22:05.673Z,100.00
2022-10-26T06:24:41.682Z,100.00
2022-10-26T06:27:20.079Z,100.00
2022-10-26T06:29:57.242Z,100.00
2022-10-26T06:32:26.028Z,100.00
2022-10-26T06:35:07.226Z,100.00
2022-10-26T06:37:37.755Z,100.00
2022-10-26T06:40:07.685Z,100.00
2022-10-26T06:42:36.228Z,100.00
2022-10-26T06:45:05.108Z,100.00
2022-10-26T06:47:41.498Z,100.00
2022-10-26T06:50:20.697Z,100.00
2022-10-26T06:52:58.940Z,100.00
2022-10-26T06:55:27.461Z,100.00
2022-10-26T06:57:55.944Z,100.00
2022-10-26T07:00:25.878Z,100.00
2022-10-26T07:02:54.379Z,100.00
2022-10-26T07:05:22.909Z,100.00
2022-10-26T07:07:52.526Z,100.00
2022-10-26T07:10:20.814Z,100.00
2022-10-26T07:12:49.836Z,100.00
2022-10-26T07:15:18.125Z,100.00
2022-10-26T07:17:47.107Z,100.00
2022-10-26T07:20:16.106Z,100.00
2022-10-26T07:22:44.575Z,100.00
2022-10-26T07:25:14.136Z,100.00
2022-10-26T07:27:42.200Z,100.00
2022-10-26T07:30:11.475Z,100.00
2022-10-26T07:32:39.674Z,100.00
2022-10-26T07:35:08.262Z,100.00
2022-10-26T07:37:36.357Z,100.00
2022-10-26T07:40:06.637Z,100.00
2022-10-26T07:42:37.498Z,100.00
2022-10-26T07:45:06.800Z,100.00
2022-10-26T07:47:34.825Z,100.00
2022-10-26T07:50:03.476Z,100.00
2022-10-26T07:52:31.572Z,100.00
2022-10-26T07:54:59.613Z,100.00
2022-10-26T07:57:27.656Z,100.00
2022-10-26T07:59:57.456Z,100.00
2022-10-26T08:02:25.867Z,100.00
2022-10-26T08:04:53.995Z,100.00
2022-10-26T08:07:22.089Z,100.00
2022-10-26T08:09:50.193Z,100.00
2022-10-26T08:12:18.259Z,100.00
2022-10-26T08:14:46.659Z,100.00
2022-10-26T08:17:16.090Z,100.00
2022-10-26T08:19:44.065Z,100.00
2022-10-26T08:22:12.112Z,100.00
2022-10-26T08:24:40.922Z,100.00
2022-10-26T08:27:08.935Z,100.00
2022-10-26T08:29:36.945Z,100.00
2022-10-26T08:32:05.214Z,100.00
2022-10-26T08:34:34.736Z,100.00
2022-10-26T08:37:02.851Z,100.00
2022-10-26T08:39:31.103Z,100.00
2022-10-26T08:42:06.806Z,100.00
2022-10-26T08:44:40.566Z,100.00
2022-10-26T08:49:57.858Z,100.00
2022-10-26T08:52:31.424Z,100.00
2022-10-26T08:55:03.217Z,100.00
2022-10-26T08:57:41.406Z,100.00
2022-10-26T09:00:15.164Z,100.00
2022-10-26T09:02:43.230Z,100.00
2022-10-26T09:05:17.513Z,100.00
2022-10-26T09:07:56.002Z,100.00
2022-10-26T09:10:41.110Z,100.00
2022-10-26T09:13:19.562Z,100.00
2022-10-26T09:15:58.863Z,100.00
2022-10-26T09:18:38.070Z,100.00
2022-10-26T09:21:26.849Z,100.00
2022-10-26T09:24:03.351Z,100.00
2022-10-26T09:26:34.734Z,100.00
2022-10-26T09:29:06.099Z,100.00
2022-10-26T09:31:43.304Z,100.00
2022-10-26T09:34:21.803Z,100.00
2022-10-26T09:36:55.294Z,100.00
2022-10-26T09:39:30.178Z,100.00
2022-10-26T09:42:01.638Z,100.00
2022-10-26T09:44:35.641Z,100.00
2022-10-26T09:47:10.723Z,98.57
2022-10-26T09:49:48.786Z,98.48
2022-10-26T09:52:18.536Z,98.62
2022-10-26T09:54:46.567Z,96.57
2022-10-26T09:57:17.188Z,95.33
2022-10-26T09:59:47.928Z,96.37
2022-10-26T10:02:37.266Z,93.81
2022-10-26T10:05:39.142Z,93.92
2022-10-26T10:08:17.877Z,92.37
2022-10-26T10:10:57.032Z,90.80
2022-10-26T10:13:27.767Z,90.10
2022-10-26T10:16:03.403Z,89.82
2022-10-26T10:18:32.237Z,88.87
2022-10-26T10:21:01.493Z,88.78
2022-10-26T10:23:33.964Z,87.31
2022-10-26T10:26:04.454Z,86.84
2022-10-26T10:28:33.287Z,85.39
2022-10-26T10:31:03.201Z,84.44
2022-10-26T10:33:39.888Z,85.71
2022-10-26T10:36:12.230Z,83.29
2022-10-26T10:38:46.795Z,82.30
2022-10-26T10:41:21.206Z,82.86
2022-10-26T10:43:51.047Z,82.67
2022-10-26T10:46:21.993Z,81.42
2022-10-26T10:48:53.197Z,80.65
2022-10-26T10:51:23.447Z,80.32
2022-10-26T10:53:55.606Z,78.08
2022-10-26T10:56:41.633Z,77.68
2022-10-26T10:59:47.954Z,76.77
2022-10-26T11:02:51.442Z,75.68
2022-10-26T11:05:45.455Z,76.55
2022-10-26T11:08:19.295Z,76.70
2022-10-26T11:10:53.639Z,73.16
2022-10-26T11:13:24.910Z,73.53
2022-10-26T11:16:01.195Z,72.93
2022-10-26T11:18:33.894Z,73.98
2022-10-26T11:21:08.477Z,73.02
2022-10-26T11:23:43.854Z,72.59
2022-10-26T11:26:17.119Z,71.87
2022-10-26T11:28:51.097Z,71.36
2022-10-26T11:31:24.518Z,70.86
2022-10-26T11:34:07.537Z,69.20
2022-10-26T11:36:38.040Z,68.84
2022-10-26T11:39:16.102Z,68.38
2022-10-26T11:41:50.937Z,66.61
2022-10-26T11:44:23.521Z,65.01
2022-10-26T11:46:56.680Z,64.28
2022-10-26T11:49:30.934Z,64.61
2022-10-26T11:52:05.347Z,62.83
2022-10-26T11:54:37.207Z,61.74
2022-10-26T11:57:07.079Z,61.18
2022-10-26T11:59:40.507Z,60.13
2022-10-26T12:02:16.468Z,59.23
2022-10-26T12:04:47.437Z,59.15
2022-10-26T12:07:25.634Z,57.35
2022-10-26T12:09:55.210Z,58.75
2022-10-26T12:12:36.396Z,58.58
2022-10-26T12:15:19.408Z,57.59
2022-10-26T12:17:54.244Z,57.14
2022-10-26T12:20:53.453Z,57.25
2022-10-26T12:23:33.924Z,56.97
2022-10-26T12:26:48.318Z,55.45
2022-10-26T12:29:45.974Z,55.68
2022-10-26T12:32:50.872Z,55.29
2022-10-26T12:35:37.922Z,56.67
2022-10-26T12:38:33.621Z,56.91
2022-10-26T12:41:20.876Z,56.73
2022-10-26T12:43:48.982Z,56.77
2022-10-26T12:46:46.164Z,56.35
2022-10-26T12:49:43.769Z,55.85
2022-10-26T12:52:43.720Z,55.14
2022-10-26T12:55:50.470Z,51.05
2022-10-26T12:58:47.963Z,49.73
2022-10-26T13:01:32.237Z,49.23
2022-10-26T13:04:15.641Z,49.80
2022-10-26T13:06:58.459Z,48.31
2022-10-26T13:09:33.126Z,45.95
2022-10-26T13:12:02.537Z,41.64
2022-10-26T13:14:36.015Z,37.18
2022-10-26T13:17:07.142Z,35.86
2022-10-26T13:19:46.254Z,33.88
2022-10-26T13:22:17.305Z,30.99
2022-10-26T13:24:51.768Z,32.32
2022-10-26T13:27:40.662Z,36.03
2022-10-26T13:30:39.037Z,34.67
2022-10-26T13:33:11.772Z,35.63
2022-10-26T13:35:44.547Z,38.73
2022-10-26T13:38:14.466Z,40.62
2022-10-26T13:40:43.063Z,42.45
2022-10-26T13:43:21.321Z,42.74
2022-10-26T13:45:55.503Z,43.14
2022-10-26T13:48:34.837Z,42.41
2022-10-26T13:51:12.279Z,43.64
2022-10-26T13:53:44.527Z,44.93
2022-10-26T13:56:21.199Z,46.38
2022-10-26T13:58:52.249Z,48.02
2022-10-26T14:01:26.118Z,49.51
2022-10-26T14:03:54.229Z,50.68
2022-10-26T14:06:28.891Z,52.19
2022-10-26T14:08:58.151Z,53.43
2022-10-26T14:11:33.716Z,54.26
2022-10-26T14:14:04.130Z,55.32
2022-10-26T14:16:35.502Z,56.74
2022-10-26T14:19:04.476Z,57.62
2022-10-26T14:21:33.892Z,58.10
2022-10-26T14:24:07.623Z,59.06
2022-10-26T14:26:41.612Z,59.15
2022-10-26T14:29:17.739Z,59.21
2022-10-26T14:31:46.109Z,60.08
2022-10-26T14:34:14.558Z,60.59
2022-10-26T14:36:47.618Z,61.97
2022-10-26T14:39:24.222Z,62.20
2022-10-26T14:41:55.334Z,62.31
2022-10-26T14:44:25.856Z,63.08
2022-10-26T14:46:54.526Z,62.81
2022-10-26T14:49:25.074Z,63.15
2022-10-26T14:51:59.554Z,61.69
2022-10-26T14:54:30.057Z,62.54
2022-10-26T14:56:58.418Z,62.56
2022-10-26T14:59:28.658Z,63.13
2022-10-26T15:01:58.248Z,63.87
2022-10-26T15:04:34.885Z,65.56
2022-10-26T15:07:10.428Z,66.26
2022-10-26T15:09:44.310Z,66.64
2022-10-26T15:12:30.624Z,68.00
2022-10-26T15:15:09.635Z,68.60
2022-10-26T15:17:39.955Z,69.69
2022-10-26T15:20:15.499Z,70.08
2022-10-26T15:22:50.621Z,70.96
2022-10-26T15:25:22.959Z,71.09
2022-10-26T15:27:52.369Z,71.61
2022-10-26T15:30:24.078Z,72.65
2022-10-26T15:32:55.491Z,73.17
2022-10-26T15:35:29.631Z,75.32
2022-10-26T15:38:01.233Z,76.69
2022-10-26T15:40:30.906Z,76.92
2022-10-26T15:43:01.770Z,77.58
2022-10-26T15:45:33.246Z,79.18
2022-10-26T15:48:17.678Z,81.23
2022-10-26T15:50:45.677Z,82.93
2022-10-26T15:53:20.704Z,85.34
2022-10-26T15:55:49.229Z,86.66
2022-10-26T15:58:17.510Z,87.61
2022-10-26T16:00:45.694Z,88.95
2022-10-26T16:03:16.678Z,90.97
2022-10-26T16:05:44.787Z,93.16
2022-10-26T16:08:18.043Z,94.03
2022-10-26T16:10:47.654Z,94.83
2022-10-26T16:13:16.338Z,95.61
2022-10-26T16:15:44.886Z,96.31
2022-10-26T16:18:13.175Z,96.46
2022-10-26T16:20:41.670Z,96.16
2022-10-26T16:23:09.800Z,95.68
2022-10-26T16:25:44.645Z,95.84
2022-10-26T16:28:13.229Z,96.01
2022-10-26T16:33:14.347Z,96.52
2022-10-26T16:35:42.363Z,97.51
2022-10-26T16:38:10.413Z,98.53
2022-10-26T16:40:38.413Z,98.95
2022-10-26T16:43:07.768Z,99.91
2022-10-26T16:45:35.824Z,100.00
2022-10-26T16:48:07.040Z,100.00
2022-10-26T16:50:36.433Z,100.00
2022-10-26T16:53:04.723Z,100.00
2022-10-26T16:55:33.161Z,100.00
2022-10-26T16:58:01.442Z,100.00
2022-10-26T17:00:33.452Z,100.00
2022-10-26T17:03:02.891Z,100.00
2022-10-26T17:05:31.679Z,100.00
2022-10-26T17:07:59.647Z,100.00
2022-10-26T17:10:28.052Z,100.00
2022-10-26T17:12:57.606Z,100.00
2022-10-26T17:15:28.945Z,100.00
2022-10-26T17:17:58.604Z,100.00
2022-10-26T17:20:26.675Z,100.00
2022-10-26T17:22:54.722Z,100.00
2022-10-26T17:25:22.696Z,100.00
2022-10-26T17:27:50.787Z,100.00
2022-10-26T17:30:18.956Z,100.00
2022-10-26T17:32:46.972Z,100.00
2022-10-26T17:35:17.001Z,100.00
2022-10-26T17:37:45.031Z,100.00
2022-10-26T17:40:13.682Z,100.00
2022-10-26T17:42:41.661Z,100.00
2022-10-26T17:45:10.984Z,100.00
2022-10-26T17:47:39.072Z,100.00
2022-10-26T17:50:08.095Z,100.00
2022-10-26T17:52:37.545Z,100.00
2022-10-26T17:55:06.265Z,100.00
2022-10-26T17:57:34.516Z,100.00
2022-10-26T18:00:02.507Z,100.00
2022-10-26T18:02:30.753Z,100.00
2022-10-26T18:05:00.035Z,100.00
2022-10-26T18:07:31.311Z,100.00
2022-10-26T18:10:13.850Z,100.00
2022-10-26T18:12:48.982Z,100.00
2022-10-26T18:15:17.486Z,100.00
2022-10-26T18:17:45.436Z,100.00
2022-10-26T18:20:13.527Z,100.00
2022-10-26T18:22:41.497Z,100.00
2022-10-26T18:25:11.263Z,100.00
2022-10-26T18:27:39.251Z,100.00
2022-10-26T18:30:08.558Z,100.00
2022-10-26T18:32:36.563Z,100.00
2022-10-26T18:35:04.823Z,100.00
2022-10-26T18:37:32.764Z,100.00
2022-10-26T18:40:00.774Z,100.00
2022-10-26T18:42:30.158Z,100.00
2022-10-26T18:45:01.307Z,100.00
2022-10-26T18:47:30.377Z,100.00
2022-10-26T18:49:58.697Z,100.00
2022-10-26T18:52:28.019Z,100.00
2022-10-26T18:54:56.519Z,100.00
2022-10-26T18:57:26.995Z,100.00
2022-10-26T18:59:56.515Z,100.00
2022-10-26T19:02:24.421Z,100.00
2022-10-26T19:04:53.759Z,100.00
2022-10-26T19:07:21.822Z,100.00
2022-10-26T19:09:49.764Z,100.00
2022-10-26T19:12:17.711Z,100.00
2022-10-26T19:14:45.690Z,100.00
2022-10-26T19:17:15.112Z,100.00
2022-10-26T19:19:43.256Z,100.00
2022-10-26T19:22:11.510Z,100.00
2022-10-26T19:24:39.538Z,100.00
2022-10-26T19:27:07.654Z,100.00
2022-10-26T19:29:35.777Z,100.00
2022-10-26T19:32:03.834Z,100.00
2022-10-26T19:34:33.156Z,100.00
2022-10-26T19:37:01.143Z,100.00
2022-10-26T19:39:29.079Z,100.00
2022-10-26T19:41:57.167Z,100.00
2022-10-26T19:44:25.685Z,100.00
2022-10-26T19:46:54.039Z,100.00
2022-10-26T19:49:22.114Z,100.00
2022-10-26T19:51:51.544Z,100.00
2022-10-26T19:54:19.513Z,100.00
2022-10-26T19:56:47.594Z,100.00
2022-10-26T19:59:15.873Z,100.00
2022-10-26T20:01:43.967Z,100.00
2022-10-26T20:04:12.024Z,100.00
2022-10-26T20:06:40.169Z,100.00
2022-10-26T20:09:09.671Z,100.00
2022-10-26T20:11:39.756Z,100.00
2022-10-26T20:14:08.416Z,100.00
2022-10-26T20:16:36.358Z,100.00
2022-10-26T20:19:04.635Z,100.00
2022-10-26T20:21:32.784Z,100.00
2022-10-26T20:24:00.859Z,100.00
2022-10-26T20:26:30.215Z,100.00
2022-10-26T20:28:58.483Z,100.00
2022-10-26T20:31:26.516Z,100.00
2022-10-26T20:33:54.799Z,100.00
2022-10-26T20:36:23.683Z,100.00
2022-10-26T20:38:52.282Z,100.00
2022-10-26T20:41:20.966Z,100.00
2022-10-26T20:43:53.303Z,100.00
2022-10-26T20:46:25.500Z,100.00
2022-10-26T20:48:54.954Z,100.00
2022-10-26T20:51:34.488Z,100.00
2022-10-26T20:54:08.346Z,100.00
2022-10-26T20:56:40.132Z,100.00
2022-10-26T20:59:17.195Z,100.00
2022-10-26T21:01:45.291Z,100.00
2022-10-26T21:04:13.350Z,100.00
2022-10-26T21:06:41.332Z,100.00
2022-10-26T21:09:10.161Z,100.00
2022-10-26T21:11:38.124Z,100.00
2022-10-26T21:14:06.489Z,100.00
2022-10-26T21:16:35.889Z,100.00
2022-10-26T21:19:05.116Z,100.00
2022-10-26T21:21:33.203Z,100.00
2022-10-26T21:24:01.166Z,100.00
2022-10-26T21:26:29.119Z,100.00
2022-10-26T21:28:57.127Z,100.00
2022-10-26T21:31:25.133Z,100.00
2022-10-26T21:33:54.485Z,100.00
2022-10-26T21:36:23.063Z,100.00
2022-10-26T21:38:51.038Z,100.00
2022-10-26T21:41:20.550Z,100.00
2022-10-26T21:43:59.096Z,100.00
2022-10-26T21:46:38.209Z,100.00
2022-10-26T21:49:07.805Z,100.00
2022-10-26T21:51:36.175Z,100.00
2022-10-26T21:54:04.443Z,100.00
2022-10-26T21:56:32.397Z,100.00
2022-10-26T21:59:01.507Z,100.00
2022-10-26T22:01:29.701Z,100.00
2022-10-26T22:03:57.949Z,100.00
2022-10-26T22:06:27.450Z,100.00
2022-10-26T22:08:55.551Z,100.00
2022-10-26T22:11:25.522Z,100.00
2022-10-26T22:13:54.073Z,100.00
2022-10-26T22:16:24.472Z,100.00
2022-10-26T22:18:54.363Z,100.00
2022-10-26T22:21:26.617Z,100.00
2022-10-26T22:23:56.427Z,100.00
2022-10-26T22:26:25.908Z,100.00
2022-10-26T22:28:55.579Z,100.00
2022-10-26T22:31:25.917Z,100.00
2022-10-26T22:33:54.673Z,100.00
2022-10-26T22:36:23.519Z,100.00
2022-10-26T22:38:52.212Z,100.00
2022-10-26T22:41:23.445Z,100.00
2022-10-26T22:43:51.905Z,100.00
2022-10-26T22:46:21.692Z,100.00
2022-10-26T22:48:54.771Z,100.00
2022-10-26T22:51:24.438Z,100.00
2022-10-26T22:53:53.938Z,100.00
2022-10-26T22:58:58.027Z,100.00
2022-10-26T23:01:27.969Z,100.00
2022-10-26T23:03:56.730Z,100.00
2022-10-26T23:06:26.699Z,100.00
2022-10-26T23:08:54.713Z,100.00
2022-10-26T23:11:26.759Z,100.00
2022-10-26T23:13:55.458Z,100.00
2022-10-26T23:16:23.623Z,100.00
2022-10-26T23:18:53.284Z,100.00
2022-10-26T23:21:23.087Z,100.00
2022-10-26T23:23:51.210Z,100.00
2022-10-26T23:26:21.947Z,100.00
2022-10-26T23:28:51.642Z,100.00
2022-10-26T23:31:21.358Z,100.00
2022-10-26T23:33:52.162Z,100.00
2022-10-26T23:36:20.753Z,100.00
2022-10-26T23:38:49.258Z,100.00
2022-10-26T23:41:17.631Z,100.00
2022-10-26T23:43:45.731Z,100.00
2022-10-26T23:46:15.273Z,100.00
2022-10-26T23:48:43.325Z,100.00
2022-10-26T23:51:11.252Z,100.00
2022-10-26T23:53:39.294Z,100.00
2022-10-26T23:56:07.996Z,100.00
2022-10-26T23:58:36.034Z,100.00
